Terminal Aerodrome Forecast
Issued by NWS Cleveland, OH

Home | Current Version | Previous Version | Text Only | Print | Product List | Glossary Off
Versions: 1 2 3 4 5 6 7 8 9 10 11 12 13 14 15 16 17 18 19 20 21

000
FTUS41 KCLE 271700
TAFYNG
TAF
KYNG 271734Z 2718/2818 18010G15KT P6SM VCSH BKN035 OVC050
      TEMPO 2720/2723 6SM -SHRA BR BKN025
     FM272300 20012G16KT 6SM -SHRA BR SCT020 OVC035
     FM280300 23008KT 4SM -RA BR SCT015 OVC025
     FM280500 24008KT 3SM -RA BR OVC006
     FM280900 28008KT 4SM -RA BR OVC006
     FM281300 29010KT 6SM BR VCSH OVC012
     FM281700 31010KT P6SM SCT012 OVC020=

USA.gov is the U.S. government's official web portal to all federal, state and local government web resources and services.